Radiance Of The Seas — C6SE7 — position and weather

sailwx.info

Track history (hours):
 
Tides and Currents Weather Stations Pressure Air Temp Water Temp Dewpoint Dewpoint Depression Visibility Wind Speed Wind Dir Waves Ship Positions

Radiance Of The Seas

Operator: Royal Caribbean Cruises Ltd

Last reported at 2018-Oct-19 20:32 UTC. Time now 2018-Oct-20 02:38 UTC.
Position S 40°05' E 149°22'.

Type: Passenger vessel. MMSI: 311319000.

Date/timePositionNaut miles runAvg speedWind from/ knotsBaromVisibWave heightAir tempDewpointWater temp
2018-Oct-19 20:32S 40°05' E 149°22'2718.8
2018-Oct-19 19:06S 40°31' E 149°12'118.3
2018-Oct-19 19:03S 40°32' E 149°12'118.4
2018-Oct-19 19:01S 40°33' E 149°12'1018.4
2018-Oct-19 18:29S 40°42' E 149°08'16517.1
2018-Oct-19 08:50S 43°15' E 147°43'11 0.3
2018-Oct-17 18:01S 43°08' E 147°31'715.7
2018-Oct-17 17:34S 43°12' E 147°38'115.6
2018-Oct-17 17:30S 43°13' E 147°40'716.1
2018-Oct-17 17:03S 43°17' E 147°48'216.7
2018-Oct-17 16:57S 43°17' E 147°50'5814.7
2018-Oct-17 13:00S 42°24' E 148°24'40717.7 350 / 81017.0 13.0 15.0
2018-Oct-16 14:00S 35°54' E 150°54'10716.2 010 / 191023.0 18.0 19.0
2018-Oct-16 07:25S 34°11' E 151°30'617.5
2018-Oct-16 07:03S 34°05' E 151°31'117.2
2018-Oct-16 07:00S 34°04' E 151°32'815.5
2018-Oct-16 06:31S 33°57' E 151°29'817.5
2018-Oct-16 06:03S 33°52' E 151°21'116.8
2018-Oct-16 06:01S 33°52' E 151°21'7 0.6
2018-Oct-15 18:12S 33°52' E 151°13'0 0.0
2018-Oct-15 13:36S 33°52' E 151°13'0 0.0
2018-Oct-15 13:17S 33°52' E 151°13'1 2.4
2018-Oct-15 12:59S 33°51' E 151°13'4 9.0
2018-Oct-15 12:30S 33°50' E 151°18'510.2
2018-Oct-15 12:03S 33°50' E 151°24'111.3
2018-Oct-15 12:00S 33°50' E 151°24'918.4
2018-Oct-15 11:31S 33°45' E 151°34'1123.5
2018-Oct-15 11:04S 33°40' E 151°45'125.6
2018-Oct-15 11:01S 33°39' E 151°46'3925.2
2018-Oct-15 09:27S 33°12' E 152°21'1325.5
2018-Oct-15 08:56S 33°01' E 152°27'1125.2
2018-Oct-15 08:30S 32°52' E 152°34'1124.9
2018-Oct-15 08:04S 32°43' E 152°42'124.9
2018-Oct-15 08:01S 32°42' E 152°43'9223.0
2018-Oct-15 04:00S 31°24' E 153°42'16122.9 080 / 301026.0 18.5 22.8
2018-Oct-14 21:00S 29°42' E 156°06'13018.6 090 / 371025.3 18.9 23.1
2018-Oct-14 14:00S 28°18' E 158°00'45018.0 090 / 321024.0 18.0 21.0
2018-Oct-13 13:00S 23°42' E 164°36'10620.6 270 / 301023.1 20.5 24.1
2018-Oct-13 07:51S 22°32' E 166°03'618.7
2018-Oct-13 07:30S 22°28' E 166°08'818.4
2018-Oct-13 07:03S 22°22' E 166°14'119.1
2018-Oct-13 07:00S 22°22' E 166°15'815.4
2018-Oct-13 06:30S 22°16' E 166°21'4 9.9
2018-Oct-13 06:04S 22°16' E 166°26'0 2.4
2018-Oct-13 06:00S 22°16' E 166°26'0 0.8
2018-Oct-13 05:30S 22°16' E 166°26'0 0.0
2018-Oct-13 05:04S 22°16' E 166°26'0 0.0
2018-Oct-13 05:01S 22°16' E 166°26'0 0.0
2018-Oct-13 04:30S 22°16' E 166°26'0 0.0
2018-Oct-13 04:03S 22°16' E 166°26'0 0.0
2018-Oct-13 04:01S 22°16' E 166°26'0 0.0
2018-Oct-13 03:31S 22°16' E 166°26'0 0.0
2018-Oct-13 03:03S 22°16' E 166°26'0 0.0
2018-Oct-13 03:01S 22°16' E 166°26'0 0.0
2018-Oct-13 02:30S 22°16' E 166°26'0 0.0
2018-Oct-13 02:04S 22°16' E 166°26'0 0.0
2018-Oct-13 01:55S 22°16' E 166°26'0 0.0
2018-Oct-13 01:30S 22°16' E 166°26'0 0.0
2018-Oct-13 01:00S 22°16' E 166°26'0 0.0
2018-Oct-13 00:30S 22°16' E 166°26'0 0.0
2018-Oct-13 00:03S 22°16' E 166°26'0 0.0
2018-Oct-13 00:01S 22°16' E 166°26'0 0.0
2018-Oct-12 23:30S 22°16' E 166°26'0 0.0
2018-Oct-12 23:04S 22°16' E 166°26'0 0.0
2018-Oct-12 23:00S 22°16' E 166°26'0 0.0
2018-Oct-12 22:30S 22°16' E 166°26'0 0.0
2018-Oct-12 22:04S 22°16' E 166°26'0 0.0
2018-Oct-12 22:01S 22°16' E 166°26'0 0.0
2018-Oct-12 21:30S 22°16' E 166°26'0 0.0
2018-Oct-12 21:03S 22°16' E 166°26'0 0.0
2018-Oct-12 21:01S 22°16' E 166°26'0 0.0
2018-Oct-12 20:30S 22°16' E 166°26'0 0.0
2018-Oct-12 20:03S 22°16' E 166°26'0 0.0
2018-Oct-12 20:00S 22°16' E 166°26'0 0.1
2018-Oct-12 19:30S 22°16' E 166°26'510.9
2018-Oct-12 19:03S 22°16' E 166°21'118.8
2018-Oct-12 19:00S 22°17' E 166°20'817.0
2018-Oct-12 18:30S 22°23' E 166°14'4 8.7
2018-Oct-12 18:03S 22°26' E 166°11'0 8.4
2018-Oct-12 18:00S 22°26' E 166°11'4 8.1
2018-Oct-12 17:30S 22°30' E 166°12'4 9.4
2018-Oct-12 17:03S 22°34' E 166°15'1 8.3
2018-Oct-12 16:58S 22°34' E 166°15'4 8.1
2018-Oct-12 16:29S 22°37' E 166°18'24 6.8
2018-Oct-12 13:00S 22°54' E 166°36'31 1.6 110 / 91019.0 21.4 24.1
2018-Oct-11 17:42S 22°24' E 166°44'317.3
2018-Oct-11 17:30S 22°24' E 166°40'917.6
2018-Oct-11 16:58S 22°29' E 166°31'914.2
2018-Oct-11 16:21S 22°33' E 166°23'618.0
2018-Oct-11 16:02S 22°37' E 166°18'117.9
2018-Oct-11 16:00S 22°37' E 166°17'4019.9
2018-Oct-11 14:00S 23°00' E 165°42'43518.1 110 / 41019.8 21.4 23.8
2018-Oct-10 14:00S 27°42' E 159°36'   350 / 121019.0 20.0 22.4
Track history (hours):
 
Tides and Currents Weather Stations Pressure Air Temp Water Temp Dewpoint Dewpoint Depression Visibility Wind Speed Wind Dir Waves Ship Positions

Radiance Of The Seas

Operator: Royal Caribbean Cruises Ltd

Last reported at 2018-Oct-19 20:32 UTC. Time now 2018-Oct-20 02:38 UTC.
Position S 40°05' E 149°22'.

Type: Passenger vessel. MMSI: 311319000.

Date/timePositionNaut miles runAvg speedWind from/ knotsBaromVisibWave heightAir tempDewpointWater temp
2018-Oct-19 20:32S 40°05' E 149°22'2718.8
2018-Oct-19 19:06S 40°31' E 149°12'118.3
2018-Oct-19 19:03S 40°32' E 149°12'118.4
2018-Oct-19 19:01S 40°33' E 149°12'1018.4
2018-Oct-19 18:29S 40°42' E 149°08'16517.1
2018-Oct-19 08:50S 43°15' E 147°43'11 0.3
2018-Oct-17 18:01S 43°08' E 147°31'715.7
2018-Oct-17 17:34S 43°12' E 147°38'115.6
2018-Oct-17 17:30S 43°13' E 147°40'716.1
2018-Oct-17 17:03S 43°17' E 147°48'216.7
2018-Oct-17 16:57S 43°17' E 147°50'5814.7
2018-Oct-17 13:00S 42°24' E 148°24'40717.7 350 / 81017.0 13.0 15.0
2018-Oct-16 14:00S 35°54' E 150°54'10716.2 010 / 191023.0 18.0 19.0
2018-Oct-16 07:25S 34°11' E 151°30'617.5
2018-Oct-16 07:03S 34°05' E 151°31'117.2
2018-Oct-16 07:00S 34°04' E 151°32'815.5
2018-Oct-16 06:31S 33°57' E 151°29'817.5
2018-Oct-16 06:03S 33°52' E 151°21'116.8
2018-Oct-16 06:01S 33°52' E 151°21'7 0.6
2018-Oct-15 18:12S 33°52' E 151°13'0 0.0
2018-Oct-15 13:36S 33°52' E 151°13'0 0.0
2018-Oct-15 13:17S 33°52' E 151°13'1 2.4
2018-Oct-15 12:59S 33°51' E 151°13'4 9.0
2018-Oct-15 12:30S 33°50' E 151°18'510.2
2018-Oct-15 12:03S 33°50' E 151°24'111.3
2018-Oct-15 12:00S 33°50' E 151°24'918.4
2018-Oct-15 11:31S 33°45' E 151°34'1123.5
2018-Oct-15 11:04S 33°40' E 151°45'125.6
2018-Oct-15 11:01S 33°39' E 151°46'3925.2
2018-Oct-15 09:27S 33°12' E 152°21'1325.5
2018-Oct-15 08:56S 33°01' E 152°27'1125.2
2018-Oct-15 08:30S 32°52' E 152°34'1124.9
2018-Oct-15 08:04S 32°43' E 152°42'124.9
2018-Oct-15 08:01S 32°42' E 152°43'9223.0
2018-Oct-15 04:00S 31°24' E 153°42'16122.9 080 / 301026.0 18.5 22.8
2018-Oct-14 21:00S 29°42' E 156°06'13018.6 090 / 371025.3 18.9 23.1
2018-Oct-14 14:00S 28°18' E 158°00'45018.0 090 / 321024.0 18.0 21.0
2018-Oct-13 13:00S 23°42' E 164°36'10620.6 270 / 301023.1 20.5 24.1
2018-Oct-13 07:51S 22°32' E 166°03'618.7
2018-Oct-13 07:30S 22°28' E 166°08'818.4
2018-Oct-13 07:03S 22°22' E 166°14'119.1
2018-Oct-13 07:00S 22°22' E 166°15'815.4
2018-Oct-13 06:30S 22°16' E 166°21'4 9.9
2018-Oct-13 06:04S 22°16' E 166°26'0 2.4
2018-Oct-13 06:00S 22°16' E 166°26'0 0.8
2018-Oct-13 05:30S 22°16' E 166°26'0 0.0
2018-Oct-13 05:04S 22°16' E 166°26'0 0.0
2018-Oct-13 05:01S 22°16' E 166°26'0 0.0
2018-Oct-13 04:30S 22°16' E 166°26'0 0.0
2018-Oct-13 04:03S 22°16' E 166°26'0 0.0
2018-Oct-13 04:01S 22°16' E 166°26'0 0.0
2018-Oct-13 03:31S 22°16' E 166°26'0 0.0
2018-Oct-13 03:03S 22°16' E 166°26'0 0.0
2018-Oct-13 03:01S 22°16' E 166°26'0 0.0
2018-Oct-13 02:30S 22°16' E 166°26'0 0.0
2018-Oct-13 02:04S 22°16' E 166°26'0 0.0
2018-Oct-13 01:55S 22°16' E 166°26'0 0.0
2018-Oct-13 01:30S 22°16' E 166°26'0 0.0
2018-Oct-13 01:00S 22°16' E 166°26'0 0.0
2018-Oct-13 00:30S 22°16' E 166°26'0 0.0
2018-Oct-13 00:03S 22°16' E 166°26'0 0.0
2018-Oct-13 00:01S 22°16' E 166°26'0 0.0
2018-Oct-12 23:30S 22°16' E 166°26'0 0.0
2018-Oct-12 23:04S 22°16' E 166°26'0 0.0
2018-Oct-12 23:00S 22°16' E 166°26'0 0.0
2018-Oct-12 22:30S 22°16' E 166°26'0 0.0
2018-Oct-12 22:04S 22°16' E 166°26'0 0.0
2018-Oct-12 22:01S 22°16' E 166°26'0 0.0
2018-Oct-12 21:30S 22°16' E 166°26'0 0.0
2018-Oct-12 21:03S 22°16' E 166°26'0 0.0
2018-Oct-12 21:01S 22°16' E 166°26'0 0.0
2018-Oct-12 20:30S 22°16' E 166°26'0 0.0
2018-Oct-12 20:03S 22°16' E 166°26'0 0.0
2018-Oct-12 20:00S 22°16' E 166°26'0 0.1
2018-Oct-12 19:30S 22°16' E 166°26'510.9
2018-Oct-12 19:03S 22°16' E 166°21'118.8
2018-Oct-12 19:00S 22°17' E 166°20'817.0
2018-Oct-12 18:30S 22°23' E 166°14'4 8.7
2018-Oct-12 18:03S 22°26' E 166°11'0 8.4
2018-Oct-12 18:00S 22°26' E 166°11'4 8.1
2018-Oct-12 17:30S 22°30' E 166°12'4 9.4
2018-Oct-12 17:03S 22°34' E 166°15'1 8.3
2018-Oct-12 16:58S 22°34' E 166°15'4 8.1
2018-Oct-12 16:29S 22°37' E 166°18'24 6.8
2018-Oct-12 13:00S 22°54' E 166°36'31 1.6 110 / 91019.0 21.4 24.1
2018-Oct-11 17:42S 22°24' E 166°44'317.3
2018-Oct-11 17:30S 22°24' E 166°40'917.6
2018-Oct-11 16:58S 22°29' E 166°31'914.2
2018-Oct-11 16:21S 22°33' E 166°23'618.0
2018-Oct-11 16:02S 22°37' E 166°18'117.9
2018-Oct-11 16:00S 22°37' E 166°17'4019.9
2018-Oct-11 14:00S 23°00' E 165°42'43518.1 110 / 41019.8 21.4 23.8
2018-Oct-10 14:00S 27°42' E 159°36'   350 / 121019.0 20.0 22.4

Dump ship's entire track history